sensor_id;sensor_type;location;lat;lon;timestamp;pressure;altitude;pressure_sealevel;temperature;humidity
53522;BME280;39398;48.382;9.802;2023-04-22T00:03:36;93259.72;;;12.24;96.01
53522;BME280;39398;48.382;9.802;2023-04-22T00:08:41;93252.16;;;12.27;94.85
53522;BME280;39398;48.382;9.802;2023-04-22T00:13:44;93256.88;;;12.25;94.36
53522;BME280;39398;48.382;9.802;2023-04-22T00:18:46;93255.19;;;12.31;91.54
53522;BME280;39398;48.382;9.802;2023-04-22T00:23:47;93249.22;;;12.17;85.58
53522;BME280;39398;48.382;9.802;2023-04-22T00:28:50;93263.63;;;12.21;90.55
53522;BME280;39398;48.382;9.802;2023-04-22T00:33:52;93260.22;;;12.14;92.02
53522;BME280;39398;48.382;9.802;2023-04-22T00:38:54;93250.44;;;12.15;91.54
53522;BME280;39398;48.382;9.802;2023-04-22T00:44:00;93251.13;;;12.10;88.35
53522;BME280;39398;48.382;9.802;2023-04-22T00:49:04;93246.03;;;12.08;87.95
53522;BME280;39398;48.382;9.802;2023-04-22T00:54:06;93257.69;;;12.26;88.03
53522;BME280;39398;48.382;9.802;2023-04-22T00:59:17;93260.81;;;12.16;84.32
53522;BME280;39398;48.382;9.802;2023-04-22T01:04:20;93258.66;;;11.50;100.00
53522;BME280;39398;48.382;9.802;2023-04-22T01:09:26;93253.22;;;11.70;100.00
53522;BME280;39398;48.382;9.802;2023-04-22T01:14:33;93270.63;;;11.52;100.00
53522;BME280;39398;48.382;9.802;2023-04-22T01:19:35;93268.19;;;11.51;100.00
53522;BME280;39398;48.382;9.802;2023-04-22T01:24:39;93265.78;;;11.11;100.00
53522;BME280;39398;48.382;9.802;2023-04-22T01:29:43;93266.56;;;11.18;100.00
53522;BME280;39398;48.382;9.802;2023-04-22T01:34:47;93258.88;;;11.03;100.00
53522;BME280;39398;48.382;9.802;2023-04-22T01:39:52;93266.56;;;11.18;99.82
53522;BME280;39398;48.382;9.802;2023-04-22T01:44:54;93264.69;;;11.25;98.83
53522;BME280;39398;48.382;9.802;2023-04-22T01:49:56;93265.63;;;11.37;99.26
53522;BME280;39398;48.382;9.802;2023-04-22T01:55:01;93258.03;;;11.09;100.00
53522;BME280;39398;48.382;9.802;2023-04-22T02:00:04;93276.56;;;11.03;100.00
53522;BME280;39398;48.382;9.802;2023-04-22T02:05:08;93280.72;;;10.85;100.00
53522;BME280;39398;48.382;9.802;2023-04-22T02:10:26;93290.56;;;11.10;100.00
53522;BME280;39398;48.382;9.802;2023-04-22T02:15:28;93275.84;;;10.82;100.00
53522;BME280;39398;48.382;9.802;2023-04-22T02:20:29;93290.56;;;11.10;100.00
53522;BME280;39398;48.382;9.802;2023-04-22T02:25:32;93276.97;;;11.06;100.00
53522;BME280;39398;48.382;9.802;2023-04-22T02:30:36;93282.47;;;11.05;100.00
53522;BME280;39398;48.382;9.802;2023-04-22T02:35:38;93279.00;;;11.11;100.00
53522;BME280;39398;48.382;9.802;2023-04-22T02:40:42;93270.25;;;11.10;100.00
53522;BME280;39398;48.382;9.802;2023-04-22T02:45:43;93266.44;;;11.00;100.00
53522;BME280;39398;48.382;9.802;2023-04-22T02:50:52;93264.81;;;10.99;100.00
53522;BME280;39398;48.382;9.802;2023-04-22T02:55:55;93259.34;;;10.93;100.00
53522;BME280;39398;48.382;9.802;2023-04-22T03:00:57;93262.25;;;10.79;98.93
53522;BME280;39398;48.382;9.802;2023-04-22T03:05:59;93269.75;;;10.75;100.00
53522;BME280;39398;48.382;9.802;2023-04-22T03:11:03;93263.03;;;10.86;100.00
53522;BME280;39398;48.382;9.802;2023-04-22T03:16:05;93259.19;;;10.75;100.00
53522;BME280;39398;48.382;9.802;2023-04-22T03:21:08;93258.78;;;10.78;98.94
53522;BME280;39398;48.382;9.802;2023-04-22T03:26:18;93253.91;;;10.75;100.00
53522;BME280;39398;48.382;9.802;2023-04-22T03:31:20;93260.81;;;10.83;100.00
53522;BME280;39398;48.382;9.802;2023-04-22T03:36:24;93258.56;;;10.86;100.00
53522;BME280;39398;48.382;9.802;2023-04-22T03:41:27;93265.69;;;10.86;97.16
53522;BME280;39398;48.382;9.802;2023-04-22T03:46:36;93254.44;;;10.97;97.39
53522;BME280;39398;48.382;9.802;2023-04-22T03:51:41;93264.66;;;10.87;96.54
53522;BME280;39398;48.382;9.802;2023-04-22T03:56:51;93261.41;;;10.91;96.59
53522;BME280;39398;48.382;9.802;2023-04-22T04:01:55;93255.69;;;10.88;100.00
53522;BME280;39398;48.382;9.802;2023-04-22T04:07:00;93258.88;;;11.03;96.27
53522;BME280;39398;48.382;9.802;2023-04-22T04:12:06;93260.75;;;10.96;94.70
53522;BME280;39398;48.382;9.802;2023-04-22T04:17:08;93267.25;;;10.93;95.96
53522;BME280;39398;48.382;9.802;2023-04-22T04:22:10;93257.16;;;10.84;96.97
53522;BME280;39398;48.382;9.802;2023-04-22T04:27:13;93263.22;;;10.84;95.73
53522;BME280;39398;48.382;9.802;2023-04-22T04:32:15;93267.09;;;10.88;94.80
53522;BME280;39398;48.382;9.802;2023-04-22T04:37:19;93259.19;;;10.82;96.41
53522;BME280;39398;48.382;9.802;2023-04-22T04:42:22;93259.41;;;10.80;96.19
53522;BME280;39398;48.382;9.802;2023-04-22T04:47:23;93252.19;;;11.01;94.02
53522;BME280;39398;48.382;9.802;2023-04-22T04:52:25;93257.53;;;10.87;95.30
53522;BME280;39398;48.382;9.802;2023-04-22T04:57:34;93253.81;;;11.02;94.24
53522;BME280;39398;48.382;9.802;2023-04-22T05:02:40;93244.06;;;11.02;94.07
53522;BME280;39398;48.382;9.802;2023-04-22T05:07:42;93253.47;;;10.91;92.95
53522;BME280;39398;48.382;9.802;2023-04-22T05:12:55;93256.81;;;11.12;93.44
53522;BME280;39398;48.382;9.802;2023-04-22T05:17:59;93257.69;;;10.99;94.14
53522;BME280;39398;48.382;9.802;2023-04-22T05:23:00;93261.13;;;11.00;93.89
53522;BME280;39398;48.382;9.802;2023-04-22T05:28:13;93266.91;;;11.28;93.59
53522;BME280;39398;48.382;9.802;2023-04-22T05:33:14;93271.53;;;11.39;94.35
53522;BME280;39398;48.382;9.802;2023-04-22T05:38:17;93273.75;;;11.43;93.46
53522;BME280;39398;48.382;9.802;2023-04-22T05:43:23;93279.25;;;11.34;94.12
53522;BME280;39398;48.382;9.802;2023-04-22T05:48:25;93270.63;;;11.52;94.39
53522;BME280;39398;48.382;9.802;2023-04-22T05:53:27;93272.66;;;11.50;94.15
53522;BME280;39398;48.382;9.802;2023-04-22T05:58:30;93274.22;;;11.33;95.24
53522;BME280;39398;48.382;9.802;2023-04-22T06:03:31;93278.59;;;11.46;97.59
53522;BME280;39398;48.382;9.802;2023-04-22T06:08:33;93281.44;;;11.44;97.39
53522;BME280;39398;48.382;9.802;2023-04-22T06:13:36;93290.78;;;11.78;95.52
53522;BME280;39398;48.382;9.802;2023-04-22T06:18:41;93294.72;;;11.69;95.04
53522;BME280;39398;48.382;9.802;2023-04-22T06:23:44;93294.16;;;11.60;100.00
53522;BME280;39398;48.382;9.802;2023-04-22T06:28:48;93297.38;;;12.01;100.00
53522;BME280;39398;48.382;9.802;2023-04-22T06:33:49;93308.06;;;12.38;100.00
53522;BME280;39398;48.382;9.802;2023-04-22T06:38:51;93300.97;;;12.31;96.06
53522;BME280;39398;48.382;9.802;2023-04-22T06:44:01;93302.97;;;12.61;96.71
53522;BME280;39398;48.382;9.802;2023-04-22T06:49:03;93305.13;;;12.46;94.67
53522;BME280;39398;48.382;9.802;2023-04-22T06:54:04;93304.69;;;12.92;93.06
53522;BME280;39398;48.382;9.802;2023-04-22T06:59:09;93305.13;;;13.26;90.04
53522;BME280;39398;48.382;9.802;2023-04-22T07:04:11;93301.28;;;13.70;84.55
53522;BME280;39398;48.382;9.802;2023-04-22T07:09:15;93306.22;;;14.09;83.32
53522;BME280;39398;48.382;9.802;2023-04-22T07:14:21;93295.06;;;13.77;79.09
53522;BME280;39398;48.382;9.802;2023-04-22T07:19:23;93300.25;;;14.25;80.78
53522;BME280;39398;48.382;9.802;2023-04-22T07:24:25;93305.06;;;14.05;80.83
53522;BME280;39398;48.382;9.802;2023-04-22T07:29:28;93305.38;;;13.96;83.99
53522;BME280;39398;48.382;9.802;2023-04-22T07:34:32;93303.94;;;14.12;81.87
53522;BME280;39398;48.382;9.802;2023-04-22T07:39:34;93299.03;;;14.51;81.18
53522;BME280;39398;48.382;9.802;2023-04-22T07:44:37;93295.75;;;14.26;79.40
53522;BME280;39398;48.382;9.802;2023-04-22T07:49:40;93297.16;;;14.40;76.04
53522;BME280;39398;48.382;9.802;2023-04-22T07:54:42;93294.31;;;14.53;76.62
53522;BME280;39398;48.382;9.802;2023-04-22T07:59:59;93291.81;;;14.16;75.96
53522;BME280;39398;48.382;9.802;2023-04-22T08:05:00;93292.81;;;14.69;73.40
53522;BME280;39398;48.382;9.802;2023-04-22T08:10:09;93280.78;;;14.43;74.68
53522;BME280;39398;48.382;9.802;2023-04-22T08:15:12;93276.19;;;14.62;71.33
53522;BME280;39398;48.382;9.802;2023-04-22T08:20:22;93292.16;;;15.14;67.62
53522;BME280;39398;48.382;9.802;2023-04-22T08:25:23;93302.00;;;15.14;68.41
53522;BME280;39398;48.382;9.802;2023-04-22T08:30:27;93311.16;;;15.46;66.94
53522;BME280;39398;48.382;9.802;2023-04-22T08:35:28;93307.06;;;15.27;69.06
53522;BME280;39398;48.382;9.802;2023-04-22T08:40:31;93307.22;;;15.49;70.91
53522;BME280;39398;48.382;9.802;2023-04-22T08:45:34;93304.09;;;16.09;67.20
53522;BME280;39398;48.382;9.802;2023-04-22T08:50:46;93299.25;;;16.23;66.84
53522;BME280;39398;48.382;9.802;2023-04-22T08:55:55;93303.72;;;17.24;63.47
53522;BME280;39398;48.382;9.802;2023-04-22T09:01:20;93310.19;;;16.89;62.96
53522;BME280;39398;48.382;9.802;2023-04-22T09:06:23;93304.34;;;16.92;64.48
53522;BME280;39398;48.382;9.802;2023-04-22T09:11:25;93301.22;;;17.61;60.49
53522;BME280;39398;48.382;9.802;2023-04-22T09:16:30;93306.31;;;17.40;61.47
53522;BME280;39398;48.382;9.802;2023-04-22T09:21:34;93298.31;;;17.40;64.08
53522;BME280;39398;48.382;9.802;2023-04-22T09:26:39;93296.03;;;17.98;62.92
53522;BME280;39398;48.382;9.802;2023-04-22T09:31:49;93297.56;;;18.16;61.96
53522;BME280;39398;48.382;9.802;2023-04-22T09:36:51;93285.75;;;17.85;58.90
53522;BME280;39398;48.382;9.802;2023-04-22T09:41:55;93290.31;;;17.84;57.50
53522;BME280;39398;48.382;9.802;2023-04-22T09:47:00;93291.19;;;18.22;55.64
53522;BME280;39398;48.382;9.802;2023-04-22T09:52:02;93291.00;;;18.66;57.81
53522;BME280;39398;48.382;9.802;2023-04-22T09:57:05;93293.22;;;19.69;58.37
53522;BME280;39398;48.382;9.802;2023-04-22T10:02:13;93277.59;;;18.61;53.07
53522;BME280;39398;48.382;9.802;2023-04-22T10:07:16;93275.00;;;18.71;54.13
53522;BME280;39398;48.382;9.802;2023-04-22T10:12:17;93268.16;;;18.48;55.93
53522;BME280;39398;48.382;9.802;2023-04-22T10:17:37;93263.19;;;18.30;54.85
53522;BME280;39398;48.382;9.802;2023-04-22T10:22:42;93274.50;;;19.17;54.65
53522;BME280;39398;48.382;9.802;2023-04-22T10:27:52;93264.66;;;18.80;53.31
53522;BME280;39398;48.382;9.802;2023-04-22T10:32:56;93266.03;;;18.83;52.58
53522;BME280;39398;48.382;9.802;2023-04-22T10:38:17;93260.78;;;18.66;51.79
53522;BME280;39398;48.382;9.802;2023-04-22T10:43:19;93260.88;;;19.18;50.31
53522;BME280;39398;48.382;9.802;2023-04-22T10:48:49;93252.00;;;19.13;50.05
53522;BME280;39398;48.382;9.802;2023-04-22T10:53:51;93245.09;;;18.74;50.68
53522;BME280;39398;48.382;9.802;2023-04-22T10:58:55;93242.00;;;18.93;52.32
53522;BME280;39398;48.382;9.802;2023-04-22T11:04:21;93244.72;;;19.03;54.47
53522;BME280;39398;48.382;9.802;2023-04-22T11:09:23;93241.13;;;18.77;54.97
53522;BME280;39398;48.382;9.802;2023-04-22T11:14:27;93237.09;;;18.74;55.36
53522;BME280;39398;48.382;9.802;2023-04-22T11:19:30;93238.75;;;18.48;53.97
53522;BME280;39398;48.382;9.802;2023-04-22T11:24:32;93241.38;;;19.28;55.38
53522;BME280;39398;48.382;9.802;2023-04-22T11:29:36;93247.88;;;19.52;54.95
53522;BME280;39398;48.382;9.802;2023-04-22T11:34:41;93237.72;;;18.92;50.69
53522;BME280;39398;48.382;9.802;2023-04-22T11:39:42;93237.69;;;18.87;51.96
53522;BME280;39398;48.382;9.802;2023-04-22T11:45:06;93242.06;;;19.03;51.71
53522;BME280;39398;48.382;9.802;2023-04-22T11:50:10;93241.69;;;19.42;48.69
53522;BME280;39398;48.382;9.802;2023-04-22T11:55:13;93245.19;;;19.47;49.27
53522;BME280;39398;48.382;9.802;2023-04-22T12:00:24;93235.94;;;19.76;48.33
53522;BME280;39398;48.382;9.802;2023-04-22T12:05:45;93235.03;;;19.55;49.52
53522;BME280;39398;48.382;9.802;2023-04-22T12:10:49;93236.91;;;19.54;48.09
53522;BME280;39398;48.382;9.802;2023-04-22T12:15:57;93233.56;;;19.94;49.20
53522;BME280;39398;48.382;9.802;2023-04-22T12:21:01;93230.59;;;19.91;48.66
53522;BME280;39398;48.382;9.802;2023-04-22T12:26:10;93225.19;;;19.65;45.72
53522;BME280;39398;48.382;9.802;2023-04-22T12:31:13;93221.00;;;20.51;49.91
53522;BME280;39398;48.382;9.802;2023-04-22T12:36:44;93217.22;;;20.21;48.21
53522;BME280;39398;48.382;9.802;2023-04-22T12:41:45;93215.75;;;19.52;47.40
53522;BME280;39398;48.382;9.802;2023-04-22T12:46:49;93222.56;;;19.86;48.18
53522;BME280;39398;48.382;9.802;2023-04-22T12:52:01;93219.09;;;20.11;46.84
53522;BME280;39398;48.382;9.802;2023-04-22T12:57:05;93214.81;;;20.35;45.05
53522;BME280;39398;48.382;9.802;2023-04-22T13:14:17;93201.16;;;20.11;44.94
53522;BME280;39398;48.382;9.802;2023-04-22T13:19:18;93205.72;;;20.21;40.35
53522;BME280;39398;48.382;9.802;2023-04-22T13:24:21;93195.75;;;20.73;41.13
53522;BME280;39398;48.382;9.802;2023-04-22T13:29:25;93189.06;;;20.50;44.14
53522;BME280;39398;48.382;9.802;2023-04-22T13:34:26;93185.88;;;20.42;40.19
53522;BME280;39398;48.382;9.802;2023-04-22T13:39:28;93186.97;;;20.01;42.21
53522;BME280;39398;48.382;9.802;2023-04-22T13:44:31;93184.25;;;20.47;43.28
53522;BME280;39398;48.382;9.802;2023-04-22T13:49:34;93173.75;;;20.76;42.19
53522;BME280;39398;48.382;9.802;2023-04-22T13:54:35;93178.59;;;20.48;39.43
53522;BME280;39398;48.382;9.802;2023-04-22T13:59:40;93166.31;;;20.11;39.62
53522;BME280;39398;48.382;9.802;2023-04-22T14:04:42;93164.94;;;20.60;40.56
53522;BME280;39398;48.382;9.802;2023-04-22T14:09:46;93160.69;;;20.23;41.05
53522;BME280;39398;48.382;9.802;2023-04-22T14:14:49;93160.69;;;19.92;41.00
53522;BME280;39398;48.382;9.802;2023-04-22T14:19:51;93156.41;;;20.02;42.98
53522;BME280;39398;48.382;9.802;2023-04-22T14:24:52;93162.03;;;19.85;43.90
53522;BME280;39398;48.382;9.802;2023-04-22T14:29:55;93169.78;;;20.12;42.88
53522;BME280;39398;48.382;9.802;2023-04-22T14:35:00;93162.56;;;19.87;42.69
53522;BME280;39398;48.382;9.802;2023-04-22T14:40:01;93169.78;;;19.81;44.21
53522;BME280;39398;48.382;9.802;2023-04-22T14:45:08;93172.72;;;20.00;44.80
53522;BME280;39398;48.382;9.802;2023-04-22T14:50:10;93175.13;;;19.81;43.96
53522;BME280;39398;48.382;9.802;2023-04-22T14:55:12;93174.00;;;19.62;44.45
53522;BME280;39398;48.382;9.802;2023-04-22T15:00:28;93172.44;;;19.71;46.01
53522;BME280;39398;48.382;9.802;2023-04-22T15:05:31;93173.78;;;19.73;46.16
53522;BME280;39398;48.382;9.802;2023-04-22T15:10:33;93179.69;;;19.81;44.72
53522;BME280;39398;48.382;9.802;2023-04-22T15:15:36;93179.88;;;19.59;45.33
53522;BME280;39398;48.382;9.802;2023-04-22T15:20:38;93168.66;;;19.62;45.43
53522;BME280;39398;48.382;9.802;2023-04-22T15:25:40;93172.44;;;19.71;45.75
53522;BME280;39398;48.382;9.802;2023-04-22T15:30:44;93167.63;;;19.68;46.18
53522;BME280;39398;48.382;9.802;2023-04-22T15:35:45;93160.69;;;19.82;45.19
53522;BME280;39398;48.382;9.802;2023-04-22T15:40:47;93164.66;;;19.59;43.23
53522;BME280;39398;48.382;9.802;2023-04-22T15:45:56;93168.66;;;19.62;45.82
53522;BME280;39398;48.382;9.802;2023-04-22T15:50:59;93170.53;;;19.56;43.63
53522;BME280;39398;48.382;9.802;2023-04-22T15:56:02;93165.72;;;19.53;42.83
53522;BME280;39398;48.382;9.802;2023-04-22T16:01:06;93175.81;;;19.25;42.50
53522;BME280;39398;48.382;9.802;2023-04-22T16:06:20;93172.31;;;19.25;42.93
53522;BME280;39398;48.382;9.802;2023-04-22T16:11:23;93178.44;;;19.15;39.90
53522;BME280;39398;48.382;9.802;2023-04-22T16:16:32;93182.13;;;18.99;40.42
53522;BME280;39398;48.382;9.802;2023-04-22T16:21:36;93177.59;;;18.99;39.03
53522;BME280;39398;48.382;9.802;2023-04-22T16:26:37;93176.47;;;18.90;39.30
53522;BME280;39398;48.382;9.802;2023-04-22T16:31:50;93177.47;;;18.79;43.43
53522;BME280;39398;48.382;9.802;2023-04-22T16:36:52;93177.91;;;18.66;44.43
53522;BME280;39398;48.382;9.802;2023-04-22T16:41:54;93185.19;;;18.70;44.56
53522;BME280;39398;48.382;9.802;2023-04-22T16:46:57;93179.06;;;18.75;44.96
53522;BME280;39398;48.382;9.802;2023-04-22T16:52:04;93172.84;;;18.69;44.96
53522;BME280;39398;48.382;9.802;2023-04-22T16:57:05;93187.13;;;18.80;46.11
53522;BME280;39398;48.382;9.802;2023-04-22T17:02:09;93187.84;;;18.70;45.54
53522;BME280;39398;48.382;9.802;2023-04-22T17:19:21;93210.72;;;17.86;55.58
53522;BME280;39398;48.382;9.802;2023-04-22T17:24:24;93209.13;;;17.85;54.02
53522;BME280;39398;48.382;9.802;2023-04-22T17:29:26;93212.25;;;18.04;56.37
53522;BME280;39398;48.382;9.802;2023-04-22T17:34:29;93213.84;;;18.05;56.51
53522;BME280;39398;48.382;9.802;2023-04-22T17:39:32;93209.56;;;18.04;56.11
53522;BME280;39398;48.382;9.802;2023-04-22T17:44:34;93211.88;;;17.96;57.54
53522;BME280;39398;48.382;9.802;2023-04-22T17:49:37;93222.06;;;17.72;61.89
53522;BME280;39398;48.382;9.802;2023-04-22T17:54:47;93216.19;;;17.48;63.67
53522;BME280;39398;48.382;9.802;2023-04-22T17:59:48;93234.59;;;17.22;67.93
53522;BME280;39398;48.382;9.802;2023-04-22T18:04:51;93245.19;;;16.56;71.28
53522;BME280;39398;48.382;9.802;2023-04-22T18:09:53;93238.72;;;16.69;72.13
53522;BME280;39398;48.382;9.802;2023-04-22T18:14:55;93240.44;;;16.24;76.46
53522;BME280;39398;48.382;9.802;2023-04-22T18:19:58;93240.00;;;16.49;73.72
53522;BME280;39398;48.382;9.802;2023-04-22T18:25:05;93248.00;;;16.49;69.97
53522;BME280;39398;48.382;9.802;2023-04-22T18:30:07;93257.84;;;16.83;68.21
53522;BME280;39398;48.382;9.802;2023-04-22T18:35:10;93247.09;;;16.61;68.60
53522;BME280;39398;48.382;9.802;2023-04-22T18:40:13;93252.09;;;16.74;68.14
53522;BME280;39398;48.382;9.802;2023-04-22T18:45:14;93261.50;;;16.60;69.45
53522;BME280;39398;48.382;9.802;2023-04-22T18:50:18;93261.97;;;16.23;72.04
53522;BME280;39398;48.382;9.802;2023-04-22T18:55:20;93272.75;;;15.54;75.85
53522;BME280;39398;48.382;9.802;2023-04-22T19:00:22;93263.75;;;15.43;79.31
53522;BME280;39398;48.382;9.802;2023-04-22T19:05:30;93271.22;;;15.18;83.78
53522;BME280;39398;48.382;9.802;2023-04-22T19:10:32;93278.28;;;15.12;81.54
53522;BME280;39398;48.382;9.802;2023-04-22T19:15:34;93277.66;;;14.81;88.02
53522;BME280;39398;48.382;9.802;2023-04-22T19:20:37;93282.38;;;15.03;88.93
53522;BME280;39398;48.382;9.802;2023-04-22T19:25:41;93274.00;;;14.59;88.05
53522;BME280;39398;48.382;9.802;2023-04-22T19:30:43;93276.66;;;14.59;91.54
53522;BME280;39398;48.382;9.802;2023-04-22T19:35:46;93277.34;;;14.66;92.01
53522;BME280;39398;48.382;9.802;2023-04-22T19:40:47;93277.00;;;14.74;90.35
53522;BME280;39398;48.382;9.802;2023-04-22T19:45:49;93285.16;;;14.49;92.93
53522;BME280;39398;48.382;9.802;2023-04-22T19:50:52;93283.31;;;14.73;89.28
53522;BME280;39398;48.382;9.802;2023-04-22T19:55:54;93287.38;;;14.52;91.19
53522;BME280;39398;48.382;9.802;2023-04-22T20:00:56;93281.56;;;14.43;89.49
53522;BME280;39398;48.382;9.802;2023-04-22T20:06:10;93266.69;;;14.42;88.84
53522;BME280;39398;48.382;9.802;2023-04-22T20:11:14;93254.09;;;14.38;90.88
53522;BME280;39398;48.382;9.802;2023-04-22T20:16:17;93246.50;;;14.30;91.25
53522;BME280;39398;48.382;9.802;2023-04-22T20:21:24;93249.13;;;14.18;92.29
53522;BME280;39398;48.382;9.802;2023-04-22T20:26:27;93247.28;;;14.30;92.21
53522;BME280;39398;48.382;9.802;2023-04-22T20:31:29;93246.94;;;14.27;92.36
53522;BME280;39398;48.382;9.802;2023-04-22T20:36:32;93244.88;;;14.17;90.50
53522;BME280;39398;48.382;9.802;2023-04-22T20:41:36;93241.03;;;14.25;90.01
53522;BME280;39398;48.382;9.802;2023-04-22T20:46:38;93253.28;;;14.14;91.86
53522;BME280;39398;48.382;9.802;2023-04-22T20:51:41;93254.41;;;13.94;93.09
53522;BME280;39398;48.382;9.802;2023-04-22T20:56:43;93261.00;;;14.15;90.83
53522;BME280;39398;48.382;9.802;2023-04-22T21:01:45;93260.31;;;14.32;89.05
53522;BME280;39398;48.382;9.802;2023-04-22T21:06:49;93257.31;;;14.28;89.99
53522;BME280;39398;48.382;9.802;2023-04-22T21:11:52;93249.13;;;14.18;90.45
53522;BME280;39398;48.382;9.802;2023-04-22T21:16:59;93253.47;;;13.89;93.05
53522;BME280;39398;48.382;9.802;2023-04-22T21:22:04;93254.06;;;14.03;91.42
53522;BME280;39398;48.382;9.802;2023-04-22T21:27:06;93257.94;;;13.77;89.60
53522;BME280;39398;48.382;9.802;2023-04-22T21:32:08;93265.25;;;13.93;90.52
53522;BME280;39398;48.382;9.802;2023-04-22T21:37:12;93263.75;;;13.97;90.71
53522;BME280;39398;48.382;9.802;2023-04-22T21:42:16;93271.34;;;13.82;90.15
53522;BME280;39398;48.382;9.802;2023-04-22T21:47:19;93270.72;;;13.68;90.83
53522;BME280;39398;48.382;9.802;2023-04-22T21:52:22;93270.16;;;13.78;89.86
53522;BME280;39398;48.382;9.802;2023-04-22T22:03:31;93270.50;;;14.23;85.73
53522;BME280;39398;48.382;9.802;2023-04-22T22:08:34;93268.38;;;14.13;85.55
53522;BME280;39398;48.382;9.802;2023-04-22T22:13:36;93264.81;;;14.19;86.30
53522;BME280;39398;48.382;9.802;2023-04-22T22:18:38;93274.25;;;14.04;84.95
53522;BME280;39398;48.382;9.802;2023-04-22T22:23:41;93271.06;;;14.25;83.69
53522;BME280;39398;48.382;9.802;2023-04-22T22:28:42;93270.56;;;14.16;82.65
53522;BME280;39398;48.382;9.802;2023-04-22T22:33:44;93269.78;;;14.28;83.52
53522;BME280;39398;48.382;9.802;2023-04-22T22:38:47;93267.50;;;14.43;83.46
53522;BME280;39398;48.382;9.802;2023-04-22T22:43:51;93266.56;;;14.37;84.27
53522;BME280;39398;48.382;9.802;2023-04-22T22:48:53;93265.41;;;14.33;84.75
53522;BME280;39398;48.382;9.802;2023-04-22T22:53:58;93267.66;;;13.83;88.97
53522;BME280;39398;48.382;9.802;2023-04-22T22:59:01;93270.09;;;13.96;87.89
53522;BME280;39398;48.382;9.802;2023-04-22T23:04:03;93271.28;;;14.24;85.97
53522;BME280;39398;48.382;9.802;2023-04-22T23:09:09;93266.94;;;13.87;89.82
53522;BME280;39398;48.382;9.802;2023-04-22T23:14:11;93270.78;;;13.91;88.18
53522;BME280;39398;48.382;9.802;2023-04-22T23:19:14;93256.41;;;14.11;87.30
53522;BME280;39398;48.382;9.802;2023-04-22T23:24:19;93252.69;;;14.12;87.48
53522;BME280;39398;48.382;9.802;2023-04-22T23:29:21;93247.09;;;13.78;87.52
53522;BME280;39398;48.382;9.802;2023-04-22T23:34:25;93251.41;;;14.03;86.34
53522;BME280;39398;48.382;9.802;2023-04-22T23:39:29;93241.94;;;14.07;85.44
53522;BME280;39398;48.382;9.802;2023-04-22T23:44:30;93243.28;;;13.74;87.11
53522;BME280;39398;48.382;9.802;2023-04-22T23:49:32;93233.47;;;13.75;87.60
53522;BME280;39398;48.382;9.802;2023-04-22T23:54:36;93233.69;;;13.61;88.30
53522;BME280;39398;48.382;9.802;2023-04-22T23:59:38;93243.53;;;13.42;89.87
